createdAt,value
2018-04-27T00:00:20.449Z,46.20
2018-04-27T00:02:46.605Z,46.00
2018-04-27T00:05:12.822Z,46.10
2018-04-27T00:07:38.935Z,45.90
2018-04-27T00:10:06.036Z,46.00
2018-04-27T00:12:32.935Z,46.00
2018-04-27T00:14:59.069Z,46.00
2018-04-27T00:17:27.887Z,45.90
2018-04-27T00:19:55.375Z,45.90
2018-04-27T00:25:15.342Z,45.90
2018-04-27T00:27:41.504Z,45.80
2018-04-27T00:30:07.636Z,45.90
2018-04-27T00:32:33.840Z,45.80
2018-04-27T00:35:00.007Z,45.70
2018-04-27T00:37:26.160Z,46.50
2018-04-27T00:39:53.031Z,45.80
2018-04-27T00:42:27.224Z,45.70
2018-04-27T00:44:54.227Z,45.70
2018-04-27T00:47:21.129Z,45.80
2018-04-27T00:49:47.259Z,45.80
2018-04-27T00:52:19.822Z,45.90
2018-04-27T00:54:47.585Z,45.80
2018-04-27T00:57:13.704Z,45.80
2018-04-27T00:59:39.836Z,45.70
2018-04-27T01:02:11.399Z,45.60
2018-04-27T01:04:40.569Z,45.70
2018-04-27T01:07:06.708Z,45.60
2018-04-27T01:09:32.850Z,45.60
2018-04-27T01:11:59.762Z,45.50
2018-04-27T01:14:26.735Z,45.60
2018-04-27T01:16:52.868Z,45.60
2018-04-27T01:19:19.045Z,45.60
2018-04-27T01:21:46.179Z,45.60
2018-04-27T01:24:13.177Z,45.60
2018-04-27T01:26:39.371Z,45.60
2018-04-27T01:29:05.572Z,45.70
2018-04-27T01:31:31.793Z,45.60
2018-04-27T01:33:58.784Z,45.70
2018-04-27T01:36:25.001Z,45.70
2018-04-27T01:38:51.279Z,45.60
2018-04-27T01:41:18.253Z,45.70
2018-04-27T01:43:45.220Z,45.70
2018-04-27T01:46:11.471Z,45.60
2018-04-27T01:48:38.408Z,45.60
2018-04-27T01:51:05.366Z,45.70
2018-04-27T01:53:31.569Z,45.60
2018-04-27T01:55:57.743Z,45.50
2018-04-27T01:58:24.657Z,45.70
2018-04-27T02:00:50.845Z,45.70
2018-04-27T02:03:17.074Z,45.60
2018-04-27T02:05:43.348Z,45.60
2018-04-27T02:08:09.544Z,46.30
2018-04-27T02:10:35.773Z,45.70
2018-04-27T02:13:02.007Z,45.60
2018-04-27T02:15:28.965Z,45.60
2018-04-27T02:17:55.949Z,45.50
2018-04-27T02:20:22.145Z,45.40
2018-04-27T02:22:49.831Z,45.50
2018-04-27T02:25:16.764Z,45.60
2018-04-27T02:27:43.690Z,45.70
2018-04-27T02:30:09.957Z,45.50
2018-04-27T02:32:36.325Z,45.50
2018-04-27T02:35:03.643Z,45.50
2018-04-27T02:37:30.548Z,45.50
2018-04-27T02:39:56.739Z,45.50
2018-04-27T02:42:30.702Z,45.50
2018-04-27T02:44:56.944Z,45.60
2018-04-27T02:47:23.121Z,45.50
2018-04-27T02:49:49.371Z,45.40
2018-04-27T02:52:16.273Z,45.40
2018-04-27T02:54:42.498Z,45.40
2018-04-27T02:57:08.729Z,45.40
2018-04-27T02:59:34.958Z,45.50
2018-04-27T03:02:02.585Z,45.50
2018-04-27T03:04:29.532Z,45.50
2018-04-27T03:06:56.512Z,45.50
2018-04-27T03:09:22.708Z,45.50
2018-04-27T03:11:48.917Z,45.00
2018-04-27T03:14:15.152Z,45.50
2018-04-27T03:16:41.368Z,45.40
2018-04-27T03:19:07.599Z,45.40
2018-04-27T03:21:34.715Z,45.50
2018-04-27T03:24:00.971Z,45.40
2018-04-27T03:26:27.158Z,45.40
2018-04-27T03:28:54.094Z,45.50
2018-04-27T03:31:21.048Z,45.40
2018-04-27T03:33:47.288Z,45.40
2018-04-27T03:36:13.551Z,45.40
2018-04-27T03:38:40.544Z,45.40
2018-04-27T03:41:06.746Z,45.30
2018-04-27T03:43:32.975Z,45.40
2018-04-27T03:45:59.985Z,45.40
2018-04-27T03:48:26.221Z,45.30
2018-04-27T03:50:53.211Z,45.40
2018-04-27T03:53:19.429Z,45.30
2018-04-27T03:55:45.647Z,45.40
2018-04-27T03:58:11.862Z,45.40
2018-04-27T04:00:38.818Z,45.40
2018-04-27T04:03:05.019Z,45.40
2018-04-27T04:05:36.302Z,45.30
2018-04-27T04:08:02.507Z,45.30
2018-04-27T04:10:28.749Z,45.30
2018-04-27T04:12:54.979Z,45.40
2018-04-27T04:15:21.903Z,45.20
2018-04-27T04:17:48.116Z,45.20
2018-04-27T04:20:14.333Z,45.30
2018-04-27T04:22:41.248Z,45.30
2018-04-27T04:25:08.248Z,45.30
2018-04-27T04:27:34.423Z,45.30
2018-04-27T04:30:00.640Z,45.30
2018-04-27T04:32:28.413Z,45.20
2018-04-27T04:34:54.590Z,45.20
2018-04-27T04:37:20.804Z,45.20
2018-04-27T04:39:47.032Z,45.20
2018-04-27T04:42:13.444Z,45.20
2018-04-27T04:44:39.686Z,45.10
2018-04-27T04:47:05.937Z,45.30
2018-04-27T04:49:32.229Z,45.10
2018-04-27T04:51:59.030Z,45.20
2018-04-27T04:54:25.964Z,46.20
2018-04-27T04:56:52.213Z,46.10
2018-04-27T04:59:18.500Z,46.20
2018-04-27T05:01:46.666Z,45.80
2018-04-27T05:04:12.926Z,45.80
2018-04-27T05:06:39.906Z,46.70
2018-04-27T05:09:06.138Z,46.00
2018-04-27T05:11:32.449Z,46.10
2018-04-27T05:13:58.669Z,46.00
2018-04-27T05:16:25.662Z,46.00
2018-04-27T05:18:51.881Z,45.90
2018-04-27T05:21:18.061Z,45.80
2018-04-27T05:23:44.254Z,46.00
2018-04-27T05:26:10.488Z,46.40
2018-04-27T05:28:36.678Z,46.70
2018-04-27T05:31:03.628Z,46.50
2018-04-27T05:33:29.812Z,46.50
2018-04-27T05:35:56.781Z,46.70
2018-04-27T05:38:23.047Z,46.50
2018-04-27T05:40:49.219Z,47.80
2018-04-27T05:43:15.411Z,48.10
2018-04-27T05:45:42.389Z,47.20
2018-04-27T05:48:08.615Z,47.10
2018-04-27T05:50:34.819Z,47.20
2018-04-27T05:53:01.062Z,47.60
2018-04-27T05:55:28.106Z,46.80
2018-04-27T05:57:54.385Z,46.80
2018-04-27T06:00:20.653Z,46.60
2018-04-27T06:02:46.879Z,46.50
2018-04-27T06:05:13.074Z,46.40
2018-04-27T06:07:40.063Z,45.80
2018-04-27T06:10:06.470Z,45.80
2018-04-27T06:12:32.749Z,45.60
2018-04-27T06:14:58.989Z,45.70
2018-04-27T06:17:26.039Z,47.60
2018-04-27T06:19:53.413Z,47.50
2018-04-27T06:22:24.827Z,46.40
2018-04-27T06:24:51.187Z,46.10
2018-04-27T06:27:17.394Z,45.90
2018-04-27T06:29:46.651Z,45.80
2018-04-27T06:32:17.398Z,45.80
2018-04-27T06:34:48.198Z,45.80
2018-04-27T06:37:14.444Z,45.80
2018-04-27T06:39:40.632Z,45.30
2018-04-27T06:45:05.320Z,45.10
2018-04-27T06:47:32.368Z,44.90
2018-04-27T06:49:58.574Z,45.10
2018-04-27T06:52:34.633Z,44.80
2018-04-27T06:55:01.561Z,44.60
2018-04-27T06:57:27.773Z,44.50
2018-04-27T06:59:53.962Z,44.50
2018-04-27T07:02:30.031Z,44.30
2018-04-27T07:04:58.440Z,44.50
2018-04-27T07:07:24.659Z,44.00
2018-04-27T07:09:50.840Z,43.50
2018-04-27T07:12:17.091Z,43.80
2018-04-27T07:14:43.290Z,43.90
2018-04-27T07:17:09.556Z,43.60
2018-04-27T07:19:35.721Z,43.60
2018-04-27T07:24:35.415Z,43.90
2018-04-27T07:27:02.340Z,43.40
2018-04-27T07:29:28.567Z,43.40
2018-04-27T07:31:55.175Z,43.30
2018-04-27T07:34:22.698Z,43.50
2018-04-27T07:36:48.913Z,43.60
2018-04-27T07:39:15.108Z,43.60
2018-04-27T07:44:28.424Z,44.30
2018-04-27T07:46:54.652Z,44.30
2018-04-27T07:49:20.876Z,44.40
2018-04-27T07:51:47.072Z,44.20
2018-04-27T07:54:13.998Z,45.00
2018-04-27T07:56:40.200Z,44.90
2018-04-27T07:59:07.144Z,44.70
2018-04-27T08:01:33.734Z,44.60
2018-04-27T08:03:59.928Z,44.40
2018-04-27T08:06:26.101Z,44.60
2018-04-27T08:08:52.372Z,44.40
2018-04-27T08:11:28.175Z,44.60
2018-04-27T08:14:01.650Z,44.00
2018-04-27T08:16:27.873Z,44.00
2018-04-27T08:18:54.833Z,43.80
2018-04-27T08:21:21.048Z,43.70
2018-04-27T08:23:47.255Z,44.00
2018-04-27T08:26:13.453Z,44.60
2018-04-27T08:28:39.713Z,44.10
2018-04-27T08:31:05.897Z,43.60
2018-04-27T08:33:32.997Z,43.60
2018-04-27T08:36:00.659Z,44.00
2018-04-27T08:38:26.863Z,43.90
2018-04-27T08:40:53.059Z,43.80
2018-04-27T08:43:20.263Z,43.70
2018-04-27T08:45:48.822Z,43.60
2018-04-27T08:48:15.066Z,43.50
2018-04-27T08:50:41.367Z,43.60
2018-04-27T08:53:07.633Z,43.60
2018-04-27T08:55:33.852Z,43.50
2018-04-27T08:58:00.782Z,43.50
2018-04-27T09:00:27.774Z,43.20
2018-04-27T09:02:53.954Z,43.20
2018-04-27T09:05:20.151Z,43.20
2018-04-27T09:07:47.097Z,43.30
2018-04-27T09:10:14.006Z,43.20
2018-04-27T09:12:40.975Z,43.20
2018-04-27T09:15:07.900Z,43.70
2018-04-27T09:17:34.173Z,43.20
2018-04-27T09:20:01.189Z,43.10
2018-04-27T09:22:28.145Z,43.00
2018-04-27T09:24:55.076Z,43.10
2018-04-27T09:27:21.269Z,43.00
2018-04-27T09:29:47.448Z,43.10
2018-04-27T09:32:22.547Z,43.00
2018-04-27T09:34:52.520Z,43.00
2018-04-27T09:37:21.750Z,43.10
2018-04-27T09:39:49.743Z,43.20
2018-04-27T09:45:03.911Z,43.20
2018-04-27T09:47:30.102Z,43.30
2018-04-27T09:49:57.060Z,44.20
2018-04-27T09:52:23.988Z,43.40
2018-04-27T09:54:50.961Z,43.50
2018-04-27T09:57:17.919Z,43.50
2018-04-27T09:59:44.148Z,43.40
2018-04-27T10:02:10.649Z,43.40
2018-04-27T10:04:36.829Z,43.60
2018-04-27T10:07:03.787Z,43.50
2018-04-27T10:09:30.755Z,43.60
2018-04-27T10:11:58.086Z,43.60
2018-04-27T10:14:25.061Z,44.30
2018-04-27T10:16:52.065Z,44.80
2018-04-27T10:19:19.008Z,44.70
2018-04-27T10:21:45.196Z,44.70
2018-04-27T10:24:11.371Z,44.60
2018-04-27T10:26:38.348Z,44.20
2018-04-27T10:29:04.554Z,44.20
2018-04-27T10:31:31.491Z,44.20
2018-04-27T10:33:58.434Z,44.10
2018-04-27T10:36:27.846Z,44.10
2018-04-27T10:38:55.357Z,44.10
2018-04-27T10:41:21.529Z,44.10
2018-04-27T10:43:48.479Z,44.20
2018-04-27T10:46:15.475Z,44.10
2018-04-27T10:48:41.662Z,44.10
2018-04-27T10:51:07.844Z,44.00
2018-04-27T10:53:34.078Z,44.00
2018-04-27T10:56:00.411Z,44.10
2018-04-27T10:58:27.305Z,43.80
2018-04-27T11:00:54.261Z,43.90
2018-04-27T11:03:20.586Z,43.90
2018-04-27T11:05:46.675Z,43.80
2018-04-27T11:08:18.020Z,43.90
2018-04-27T11:10:44.318Z,43.80
2018-04-27T11:13:10.554Z,44.00
2018-04-27T11:15:36.768Z,43.80
2018-04-27T11:18:02.975Z,43.80
2018-04-27T11:20:29.175Z,43.80
2018-04-27T11:22:56.147Z,43.50
2018-04-27T11:25:23.079Z,43.90
2018-04-27T11:27:50.029Z,43.90
2018-04-27T11:30:16.980Z,43.90
2018-04-27T11:32:43.195Z,43.80
2018-04-27T11:35:09.523Z,43.80
2018-04-27T11:37:35.677Z,43.90
2018-04-27T11:40:01.925Z,43.90
2018-04-27T11:42:28.136Z,43.90
2018-04-27T11:44:55.117Z,43.90
2018-04-27T11:47:22.573Z,43.90
2018-04-27T11:49:52.420Z,44.00
2018-04-27T11:52:25.911Z,44.10
2018-04-27T11:54:56.402Z,44.20
2018-04-27T11:57:22.619Z,44.10
2018-04-27T11:59:48.800Z,44.00
2018-04-27T12:02:22.111Z,44.00
2018-04-27T12:04:49.064Z,44.00
2018-04-27T12:07:15.306Z,43.90
2018-04-27T12:09:41.494Z,43.80
2018-04-27T12:12:14.126Z,43.80
2018-04-27T12:14:41.068Z,43.20
2018-04-27T12:17:08.052Z,43.60
2018-04-27T12:19:34.282Z,43.60
2018-04-27T12:22:10.596Z,44.70
2018-04-27T12:24:36.798Z,44.20
2018-04-27T12:27:03.009Z,43.70
2018-04-27T12:29:29.229Z,43.30
2018-04-27T12:34:37.394Z,43.10
2018-04-27T12:37:03.603Z,43.20
2018-04-27T12:39:29.850Z,43.10
2018-04-27T12:44:36.259Z,43.10
2018-04-27T12:47:02.494Z,43.90
2018-04-27T12:49:28.697Z,43.20
2018-04-27T12:52:12.152Z,43.20
2018-04-27T12:54:39.075Z,43.50
2018-04-27T12:57:05.311Z,43.30
2018-04-27T12:59:31.503Z,43.20
2018-04-27T13:02:12.182Z,43.30
2018-04-27T13:04:38.379Z,43.00
2018-04-27T13:07:04.586Z,43.20
2018-04-27T13:09:30.764Z,43.30
2018-04-27T13:14:40.078Z,43.20
2018-04-27T13:17:06.257Z,43.40
2018-04-27T13:19:33.210Z,43.50
2018-04-27T13:22:07.038Z,43.40
2018-04-27T13:24:34.104Z,43.40
2018-04-27T13:27:00.525Z,43.20
2018-04-27T13:29:27.470Z,43.30
2018-04-27T13:32:00.728Z,43.30
2018-04-27T13:34:27.295Z,43.20
2018-04-27T13:36:53.544Z,43.20
2018-04-27T13:39:19.880Z,43.10
2018-04-27T13:41:46.236Z,43.20
2018-04-27T13:44:13.357Z,43.50
2018-04-27T13:46:39.650Z,43.40
2018-04-27T13:49:05.984Z,43.50
2018-04-27T13:51:32.398Z,43.50
2018-04-27T13:53:58.643Z,43.30
2018-04-27T13:56:25.588Z,43.50
2018-04-27T13:58:52.509Z,43.50
2018-04-27T14:01:18.725Z,43.40
2018-04-27T14:03:45.711Z,43.80
2018-04-27T14:06:12.437Z,43.80
2018-04-27T14:08:38.677Z,43.60
2018-04-27T14:11:04.903Z,43.80
2018-04-27T14:13:31.098Z,43.80
2018-04-27T14:15:57.309Z,43.80
2018-04-27T14:18:23.874Z,43.80
2018-04-27T14:20:50.140Z,43.80
2018-04-27T14:23:16.359Z,43.90
2018-04-27T14:25:42.576Z,43.90
2018-04-27T14:28:08.772Z,43.80
2018-04-27T14:30:34.967Z,43.80
2018-04-27T14:33:01.963Z,43.90
2018-04-27T14:35:28.941Z,43.80
2018-04-27T14:37:55.135Z,43.80
2018-04-27T14:40:21.358Z,44.00
2018-04-27T14:42:49.119Z,44.20
2018-04-27T14:45:16.729Z,45.40
2018-04-27T14:47:45.495Z,44.70
2018-04-27T14:50:11.689Z,44.50
2018-04-27T14:52:47.400Z,44.40
2018-04-27T14:55:17.803Z,44.40
2018-04-27T14:57:44.012Z,44.10
2018-04-27T15:00:15.217Z,43.80
2018-04-27T15:02:42.761Z,43.60
2018-04-27T15:05:09.828Z,43.70
2018-04-27T15:07:36.045Z,43.70
2018-04-27T15:10:02.246Z,43.20
2018-04-27T15:12:29.236Z,43.40
2018-04-27T15:14:55.483Z,43.40
2018-04-27T15:17:21.699Z,43.70
2018-04-27T15:19:47.889Z,43.40
2018-04-27T15:22:14.097Z,43.10
2018-04-27T15:24:40.328Z,43.00
2018-04-27T15:27:06.548Z,43.00
2018-04-27T15:29:33.500Z,43.10
2018-04-27T15:32:00.487Z,43.10
2018-04-27T15:34:26.751Z,43.20
2018-04-27T15:36:53.684Z,43.20
2018-04-27T15:39:20.657Z,43.00
2018-04-27T15:44:38.338Z,42.90
2018-04-27T15:47:06.762Z,42.90
2018-04-27T15:49:33.776Z,43.10
2018-04-27T15:52:00.788Z,43.40
2018-04-27T15:54:27.062Z,42.80
2018-04-27T15:56:53.308Z,42.80
2018-04-27T15:59:20.305Z,43.60
2018-04-27T16:01:46.705Z,42.70
2018-04-27T16:04:12.941Z,42.60
2018-04-27T16:06:39.201Z,42.50
2018-04-27T16:09:05.497Z,42.60
2018-04-27T16:11:32.410Z,42.40
2018-04-27T16:13:58.773Z,42.40
2018-04-27T16:16:25.118Z,42.40
2018-04-27T16:18:51.322Z,42.40
2018-04-27T16:21:17.568Z,41.90
2018-04-27T16:23:43.769Z,41.60
2018-04-27T16:26:10.028Z,41.50
2018-04-27T16:28:36.971Z,40.70
2018-04-27T16:31:03.919Z,41.00
2018-04-27T16:34:36.752Z,37.90
2018-04-27T16:37:02.979Z,42.40
2018-04-27T16:39:29.273Z,37.70
2018-04-27T16:41:59.645Z,37.90
2018-04-27T16:44:26.309Z,38.10
2018-04-27T16:46:53.265Z,38.50
2018-04-27T16:49:20.177Z,38.90
2018-04-27T16:51:48.210Z,38.90
2018-04-27T16:54:25.424Z,38.70
2018-04-27T16:59:37.790Z,38.90
2018-04-27T17:02:05.444Z,39.20
2018-04-27T17:04:31.655Z,39.20
2018-04-27T17:06:57.856Z,39.60
2018-04-27T17:09:24.117Z,39.70
2018-04-27T17:11:50.369Z,39.60
2018-04-27T17:14:16.569Z,39.60
2018-04-27T17:16:43.531Z,39.60
2018-04-27T17:19:09.725Z,39.60
2018-04-27T17:21:35.937Z,39.60
2018-04-27T17:24:02.196Z,39.60
2018-04-27T17:26:28.475Z,39.70
2018-04-27T17:28:55.408Z,39.70
2018-04-27T17:31:21.613Z,39.70
2018-04-27T17:33:48.569Z,40.30
2018-04-27T17:36:14.791Z,40.20
2018-04-27T17:38:41.732Z,40.40
2018-04-27T17:41:07.968Z,40.30
2018-04-27T17:43:34.242Z,40.40
2018-04-27T17:46:00.420Z,40.60
2018-04-27T17:48:26.633Z,40.70
2018-04-27T17:50:52.843Z,40.80
2018-04-27T17:53:19.816Z,43.50
2018-04-27T17:55:46.036Z,43.50
2018-04-27T17:58:12.285Z,43.50
2018-04-27T18:00:38.482Z,43.80
2018-04-27T18:03:04.702Z,43.80
2018-04-27T18:05:31.653Z,44.70
2018-04-27T18:07:57.903Z,44.70
2018-04-27T18:10:24.214Z,45.30
2018-04-27T18:12:50.431Z,45.00
2018-04-27T18:15:16.700Z,45.90
2018-04-27T18:17:43.724Z,45.20
2018-04-27T18:20:09.922Z,45.10
2018-04-27T18:22:36.101Z,45.30
2018-04-27T18:25:02.312Z,45.30
2018-04-27T18:27:28.517Z,47.30
2018-04-27T18:29:55.486Z,47.00
2018-04-27T18:32:21.664Z,47.30
2018-04-27T18:34:49.612Z,47.40
2018-04-27T18:37:15.820Z,47.40
2018-04-27T18:39:42.006Z,47.40
2018-04-27T18:42:09.115Z,47.30
2018-04-27T18:44:35.380Z,47.90
2018-04-27T18:47:01.579Z,47.30
2018-04-27T18:49:27.780Z,47.20
2018-04-27T18:51:54.380Z,47.40
2018-04-27T18:54:20.601Z,47.50
2018-04-27T18:56:47.569Z,48.10
2018-04-27T18:59:13.763Z,47.40
2018-04-27T19:01:40.715Z,47.50
2018-04-27T19:04:06.926Z,47.60
2018-04-27T19:06:33.916Z,47.50
2018-04-27T19:09:00.168Z,47.50
2018-04-27T19:11:26.398Z,47.40
2018-04-27T19:13:52.614Z,47.70
2018-04-27T19:16:18.827Z,47.80
2018-04-27T19:18:45.063Z,46.90
2018-04-27T19:23:53.500Z,48.10
2018-04-27T19:26:21.774Z,48.00
2018-04-27T19:28:48.054Z,47.50
2018-04-27T19:31:22.521Z,46.80
2018-04-27T19:33:48.789Z,46.80
2018-04-27T19:36:15.758Z,46.40
2018-04-27T19:38:43.783Z,46.40
2018-04-27T19:41:10.028Z,46.40
2018-04-27T19:43:36.240Z,46.40
2018-04-27T19:46:02.442Z,46.40
2018-04-27T19:51:08.928Z,46.40
2018-04-27T19:53:35.265Z,46.40
2018-04-27T19:56:01.751Z,46.40
2018-04-27T19:58:27.946Z,46.40
2018-04-27T20:00:54.182Z,46.40
2018-04-27T20:03:20.597Z,46.40
2018-04-27T20:05:46.919Z,46.40
2018-04-27T20:08:13.148Z,46.40
2018-04-27T20:10:39.435Z,46.70
2018-04-27T20:13:05.794Z,46.50
2018-04-27T20:15:32.038Z,46.40
2018-04-27T20:17:58.248Z,46.40
2018-04-27T20:20:24.468Z,46.50
2018-04-27T20:22:50.722Z,46.60
2018-04-27T20:25:17.012Z,46.50
2018-04-27T20:27:44.034Z,46.60
2018-04-27T20:30:10.275Z,46.60
2018-04-27T20:32:36.510Z,46.70
2018-04-27T20:35:02.798Z,46.70
2018-04-27T20:37:29.071Z,46.80
2018-04-27T20:39:55.320Z,46.80
2018-04-27T20:42:21.554Z,46.80
2018-04-27T20:44:48.496Z,46.70
2018-04-27T20:47:14.781Z,46.70
2018-04-27T20:49:41.032Z,46.70
2018-04-27T20:52:07.497Z,46.80
2018-04-27T20:54:34.282Z,47.10
2018-04-27T20:57:00.768Z,46.90
2018-04-27T20:59:27.266Z,46.70
2018-04-27T21:04:45.226Z,46.40
2018-04-27T21:07:12.851Z,46.50
2018-04-27T21:09:39.084Z,46.90
2018-04-27T21:15:01.650Z,49.10
2018-04-27T21:17:27.871Z,49.10
2018-04-27T21:19:54.082Z,51.00
2018-04-27T21:22:32.622Z,51.40
2018-04-27T21:24:59.985Z,52.30
2018-04-27T21:27:26.937Z,51.80
2018-04-27T21:29:53.135Z,51.80
2018-04-27T21:32:25.162Z,50.90
2018-04-27T21:34:53.089Z,50.60
2018-04-27T21:37:19.690Z,50.60
2018-04-27T21:39:46.917Z,50.70
2018-04-27T21:42:13.500Z,51.10
2018-04-27T21:44:40.131Z,50.80
2018-04-27T21:47:06.339Z,51.00
2018-04-27T21:49:33.276Z,51.30
2018-04-27T21:51:59.488Z,51.30
2018-04-27T21:54:25.680Z,51.10
2018-04-27T21:56:52.650Z,50.50
2018-04-27T21:59:18.847Z,50.50
2018-04-27T22:01:46.497Z,50.30
2018-04-27T22:04:12.709Z,50.30
2018-04-27T22:06:39.711Z,49.90
2018-04-27T22:09:05.911Z,49.90
2018-04-27T22:11:32.119Z,49.20
2018-04-27T22:13:59.076Z,49.20
2018-04-27T22:16:25.295Z,49.10
2018-04-27T22:18:52.258Z,49.10
2018-04-27T22:21:18.438Z,49.00
2018-04-27T22:23:44.670Z,48.80
2018-04-27T22:26:11.627Z,48.70
2018-04-27T22:28:37.872Z,48.60
2018-04-27T22:31:04.075Z,48.80
2018-04-27T22:33:30.270Z,48.50
2018-04-27T22:35:56.476Z,48.50
2018-04-27T22:38:23.403Z,48.10
2018-04-27T22:40:50.345Z,48.10
2018-04-27T22:43:16.548Z,48.10
2018-04-27T22:45:43.518Z,48.10
2018-04-27T22:48:09.700Z,48.10
2018-04-27T22:50:36.676Z,47.90
2018-04-27T22:53:02.858Z,47.90
2018-04-27T22:55:29.061Z,48.00
2018-04-27T22:57:55.250Z,47.90
2018-04-27T23:00:22.219Z,47.80
2018-04-27T23:02:48.408Z,47.70
2018-04-27T23:05:14.637Z,47.80
2018-04-27T23:07:40.879Z,47.70
2018-04-27T23:10:07.054Z,47.70
2018-04-27T23:12:33.257Z,47.60
2018-04-27T23:14:59.980Z,47.60
2018-04-27T23:17:26.300Z,47.60
2018-04-27T23:19:52.518Z,47.60
2018-04-27T23:25:06.320Z,47.50
2018-04-27T23:27:32.526Z,47.40
2018-04-27T23:29:58.728Z,47.30
2018-04-27T23:32:30.600Z,47.30
2018-04-27T23:35:05.416Z,47.30
2018-04-27T23:37:32.370Z,47.20
2018-04-27T23:39:58.644Z,47.10
2018-04-27T23:42:34.065Z,47.20
2018-04-27T23:45:01.973Z,47.10
2018-04-27T23:47:31.345Z,47.60
2018-04-27T23:49:59.386Z,47.20
2018-04-27T23:52:26.835Z,47.00
2018-04-27T23:54:53.084Z,47.00
2018-04-27T23:57:19.383Z,47.10
2018-04-27T23:59:45.538Z,47.00
